createdAt,value
2022-11-17T00:00:14.942Z,83.14
2022-11-17T00:01:14.918Z,83.08
2022-11-17T00:02:14.980Z,83.15
2022-11-17T00:03:14.897Z,83.09
2022-11-17T00:04:14.907Z,83.05
2022-11-17T00:05:14.919Z,83.14
2022-11-17T00:06:14.865Z,83.12
2022-11-17T00:07:14.961Z,83.09
2022-11-17T00:08:14.835Z,83.10
2022-11-17T00:09:14.858Z,83.08
2022-11-17T00:10:14.804Z,83.02
2022-11-17T00:11:14.792Z,83.01
2022-11-17T00:12:16.999Z,83.03
2022-11-17T00:13:15.763Z,82.98
2022-11-17T00:14:14.752Z,82.93
2022-11-17T00:15:14.779Z,82.80
2022-11-17T00:16:14.760Z,82.60
2022-11-17T00:17:14.716Z,82.70
2022-11-17T00:18:14.723Z,82.72
2022-11-17T00:19:14.698Z,82.59
2022-11-17T00:20:14.688Z,82.49
2022-11-17T00:21:14.694Z,82.48
2022-11-17T00:22:14.673Z,82.42
2022-11-17T00:23:14.658Z,82.44
2022-11-17T00:24:14.657Z,82.29
2022-11-17T00:25:14.623Z,82.40
2022-11-17T00:26:14.615Z,82.32
2022-11-17T00:27:14.615Z,82.27
2022-11-17T00:28:14.602Z,82.10
2022-11-17T00:29:14.574Z,81.90
2022-11-17T00:30:14.570Z,82.03
2022-11-17T00:31:14.556Z,81.97
2022-11-17T00:32:14.572Z,81.91
2022-11-17T00:33:14.545Z,81.86
2022-11-17T00:34:14.528Z,82.04
2022-11-17T00:35:14.505Z,82.11
2022-11-17T00:36:14.496Z,82.21
2022-11-17T00:37:14.509Z,82.23
2022-11-17T00:38:14.522Z,82.17
2022-11-17T00:39:14.478Z,82.22
2022-11-17T00:40:14.505Z,82.27
2022-11-17T00:41:14.434Z,82.38
2022-11-17T00:42:14.460Z,82.47
2022-11-17T00:43:14.417Z,82.62
2022-11-17T00:44:14.401Z,82.62
2022-11-17T00:45:14.395Z,82.77
2022-11-17T00:46:14.374Z,83.18
2022-11-17T00:47:14.362Z,83.41
2022-11-17T00:48:14.407Z,83.48
2022-11-17T00:49:14.340Z,83.59
2022-11-17T00:50:14.334Z,83.78
2022-11-17T00:51:14.338Z,83.95
2022-11-17T00:52:14.312Z,84.21
2022-11-17T00:53:14.336Z,84.20
2022-11-17T00:54:14.289Z,84.41
2022-11-17T00:55:14.298Z,84.56
2022-11-17T00:56:14.267Z,84.39
2022-11-17T00:57:14.246Z,84.52
2022-11-17T00:58:14.362Z,84.50
2022-11-17T00:59:14.232Z,84.66
2022-11-17T01:00:14.209Z,84.99
2022-11-17T01:01:14.374Z,85.02
2022-11-17T01:02:14.194Z,85.19
2022-11-17T01:03:14.464Z,85.38
2022-11-17T01:04:14.192Z,85.54
2022-11-17T01:05:14.187Z,85.75
2022-11-17T01:06:14.171Z,85.87
2022-11-17T01:07:14.218Z,85.98
2022-11-17T01:08:14.175Z,86.04
2022-11-17T01:09:14.125Z,86.08
2022-11-17T01:10:14.113Z,86.05
2022-11-17T01:11:14.131Z,86.24
2022-11-17T01:12:14.090Z,86.17
2022-11-17T01:13:14.091Z,86.29
2022-11-17T01:14:14.083Z,86.20
2022-11-17T01:15:14.047Z,86.25
2022-11-17T01:16:14.040Z,86.38
2022-11-17T01:17:14.029Z,86.15
2022-11-17T01:18:14.019Z,86.11
2022-11-17T01:19:14.056Z,86.03
2022-11-17T01:20:13.988Z,86.15
2022-11-17T01:21:13.959Z,86.31
2022-11-17T01:22:13.959Z,86.11
2022-11-17T01:23:13.949Z,85.90
2022-11-17T01:24:13.948Z,86.17
2022-11-17T01:25:13.947Z,86.22
2022-11-17T01:26:13.911Z,86.19
2022-11-17T01:27:13.898Z,86.45
2022-11-17T01:28:13.885Z,86.53
2022-11-17T01:29:13.875Z,86.62
2022-11-17T01:30:13.879Z,86.59
2022-11-17T01:31:13.860Z,86.57
2022-11-17T01:32:13.844Z,86.55
2022-11-17T01:33:13.833Z,86.84
2022-11-17T01:34:13.819Z,87.01
2022-11-17T01:35:13.807Z,86.88
2022-11-17T01:36:13.813Z,87.04
2022-11-17T01:37:13.807Z,87.14
2022-11-17T01:38:13.774Z,87.28
2022-11-17T01:39:13.750Z,87.35
2022-11-17T01:40:13.747Z,87.37
2022-11-17T01:41:13.755Z,87.31
2022-11-17T01:42:13.728Z,87.51
2022-11-17T01:43:13.732Z,87.54
2022-11-17T01:44:13.701Z,87.71
2022-11-17T01:45:13.689Z,87.87
2022-11-17T01:46:13.698Z,87.93
2022-11-17T01:47:13.659Z,87.94
2022-11-17T01:48:13.649Z,88.03
2022-11-17T01:49:13.634Z,88.13
2022-11-17T01:50:13.646Z,88.33
2022-11-17T01:51:13.630Z,88.45
2022-11-17T01:52:13.613Z,88.50
2022-11-17T01:53:13.598Z,88.52
2022-11-17T01:54:13.579Z,88.64
2022-11-17T01:55:13.568Z,88.76
2022-11-17T01:56:13.578Z,88.85
2022-11-17T01:57:13.547Z,88.94
2022-11-17T01:58:13.549Z,89.05
2022-11-17T01:59:13.526Z,89.14
2022-11-17T02:00:13.504Z,89.22
2022-11-17T02:01:13.543Z,89.17
2022-11-17T02:02:13.490Z,89.32
2022-11-17T02:03:13.494Z,89.48
2022-11-17T02:04:13.503Z,89.63
2022-11-17T02:05:13.450Z,89.80
2022-11-17T02:06:13.454Z,89.95
2022-11-17T02:07:13.511Z,90.10
2022-11-17T02:08:13.414Z,90.23
2022-11-17T02:09:13.420Z,90.24
2022-11-17T02:10:13.383Z,90.16
2022-11-17T02:11:13.377Z,90.18
2022-11-17T02:12:13.378Z,90.21
2022-11-17T02:13:13.375Z,90.23
2022-11-17T02:14:13.338Z,90.28
2022-11-17T02:15:13.334Z,90.29
2022-11-17T02:16:13.348Z,90.30
2022-11-17T02:17:14.293Z,90.38
2022-11-17T02:18:13.299Z,90.41
2022-11-17T02:19:13.302Z,90.48
2022-11-17T02:20:13.265Z,90.53
2022-11-17T02:21:13.264Z,90.49
2022-11-17T02:22:13.244Z,90.46
2022-11-17T02:23:13.259Z,90.40
2022-11-17T02:24:13.232Z,90.42
2022-11-17T02:25:13.202Z,90.49
2022-11-17T02:26:13.201Z,90.49
2022-11-17T02:27:13.186Z,90.42
2022-11-17T02:28:13.172Z,90.47
2022-11-17T02:29:13.167Z,90.50
2022-11-17T02:30:13.169Z,90.53
2022-11-17T02:31:13.144Z,90.64
2022-11-17T02:32:13.132Z,90.77
2022-11-17T02:33:13.116Z,90.83
2022-11-17T02:34:13.125Z,90.92
2022-11-17T02:35:13.093Z,90.95
2022-11-17T02:36:13.107Z,90.99
2022-11-17T02:37:13.071Z,91.00
2022-11-17T02:38:13.051Z,91.05
2022-11-17T02:39:13.065Z,91.12
2022-11-17T02:40:13.029Z,91.14
2022-11-17T02:41:13.031Z,91.18
2022-11-17T02:42:13.024Z,91.19
2022-11-17T02:43:13.021Z,91.26
2022-11-17T02:44:12.981Z,91.29
2022-11-17T02:45:13.001Z,91.26
2022-11-17T02:46:12.966Z,91.29
2022-11-17T02:47:12.955Z,91.32
2022-11-17T02:48:12.945Z,91.36
2022-11-17T02:49:12.937Z,91.37
2022-11-17T02:50:12.934Z,91.39
2022-11-17T02:51:12.914Z,91.41
2022-11-17T02:52:12.900Z,91.47
2022-11-17T02:53:12.882Z,91.45
2022-11-17T02:54:12.882Z,91.44
2022-11-17T02:55:12.889Z,91.43
2022-11-17T02:56:12.846Z,91.49
2022-11-17T02:57:12.842Z,91.46
2022-11-17T02:58:12.835Z,91.38
2022-11-17T02:59:12.808Z,91.37
2022-11-17T03:00:12.819Z,91.32
2022-11-17T03:01:12.824Z,91.32
2022-11-17T03:02:12.784Z,91.32
2022-11-17T03:03:12.784Z,91.30
2022-11-17T03:04:12.746Z,91.36
2022-11-17T03:05:12.775Z,91.42
2022-11-17T03:06:12.727Z,91.49
2022-11-17T03:07:12.800Z,91.56
2022-11-17T03:08:12.724Z,91.62
2022-11-17T03:09:12.704Z,91.62
2022-11-17T03:10:12.682Z,91.55
2022-11-17T03:11:12.711Z,91.56
2022-11-17T03:12:12.656Z,91.59
2022-11-17T03:13:12.664Z,91.51
2022-11-17T03:14:12.639Z,91.34
2022-11-17T03:15:12.640Z,91.30
2022-11-17T03:16:12.648Z,91.26
2022-11-17T03:17:12.591Z,91.22
2022-11-17T03:18:12.613Z,91.14
2022-11-17T03:19:12.584Z,91.11
2022-11-17T03:20:12.568Z,91.07
2022-11-17T03:21:12.572Z,90.98
2022-11-17T03:22:12.565Z,90.90
2022-11-17T03:23:12.532Z,90.79
2022-11-17T03:24:12.536Z,90.83
2022-11-17T03:25:12.536Z,90.87
2022-11-17T03:26:12.501Z,90.88
2022-11-17T03:27:12.495Z,90.89
2022-11-17T03:28:12.477Z,90.83
2022-11-17T03:29:13.420Z,90.58
2022-11-17T03:30:12.453Z,90.43
2022-11-17T03:31:12.447Z,90.26
2022-11-17T03:32:12.453Z,90.22
2022-11-17T03:33:12.422Z,90.16
2022-11-17T03:34:12.412Z,90.14
2022-11-17T03:35:12.396Z,90.17
2022-11-17T03:36:12.387Z,90.17
2022-11-17T03:37:12.407Z,90.00
2022-11-17T03:38:12.384Z,89.86
2022-11-17T03:39:12.364Z,89.79
2022-11-17T03:40:12.336Z,89.70
2022-11-17T03:41:12.336Z,89.71
2022-11-17T03:42:12.313Z,89.56
2022-11-17T03:43:12.324Z,89.38
2022-11-17T03:44:12.292Z,89.34
2022-11-17T03:45:12.267Z,89.26
2022-11-17T03:46:12.256Z,89.19
2022-11-17T03:47:12.267Z,89.25
2022-11-17T03:48:12.312Z,89.11
2022-11-17T03:49:12.232Z,88.91
2022-11-17T03:50:12.225Z,88.74
2022-11-17T03:51:12.216Z,88.70
2022-11-17T03:52:12.196Z,88.64
2022-11-17T03:53:12.199Z,88.61
2022-11-17T03:54:12.190Z,88.61
2022-11-17T03:55:12.166Z,88.59
2022-11-17T03:56:12.145Z,88.45
2022-11-17T03:57:12.143Z,88.44
2022-11-17T03:58:12.145Z,88.49
2022-11-17T03:59:12.117Z,88.23
2022-11-17T04:00:12.120Z,88.24
2022-11-17T04:01:12.087Z,88.13
2022-11-17T04:02:12.127Z,88.02
2022-11-17T04:03:12.078Z,88.12
2022-11-17T04:04:12.054Z,88.08
2022-11-17T04:05:12.038Z,88.15
2022-11-17T04:06:12.038Z,88.25
2022-11-17T04:07:12.049Z,88.40
2022-11-17T04:08:12.022Z,88.43
2022-11-17T04:09:12.002Z,88.50
2022-11-17T04:10:11.991Z,88.49
2022-11-17T04:11:11.968Z,88.53
2022-11-17T04:12:11.980Z,88.54
2022-11-17T04:13:11.989Z,88.54
2022-11-17T04:14:11.932Z,88.50
2022-11-17T04:15:11.928Z,88.67
2022-11-17T04:16:11.925Z,88.69
2022-11-17T04:17:11.910Z,88.70
2022-11-17T04:18:11.898Z,88.75
2022-11-17T04:19:11.895Z,88.83
2022-11-17T04:20:11.871Z,88.88
2022-11-17T04:21:11.875Z,88.78
2022-11-17T04:22:11.846Z,88.69
2022-11-17T04:23:11.868Z,88.68
2022-11-17T04:24:11.866Z,88.67
2022-11-17T04:25:11.810Z,88.70
2022-11-17T04:26:11.832Z,88.64
2022-11-17T04:27:11.800Z,88.52
2022-11-17T04:28:11.780Z,88.46
2022-11-17T04:29:11.782Z,88.41
2022-11-17T04:30:11.756Z,88.40
2022-11-17T04:31:11.747Z,88.26
2022-11-17T04:32:11.729Z,88.22
2022-11-17T04:33:11.725Z,88.27
2022-11-17T04:34:11.718Z,88.24
2022-11-17T04:35:11.699Z,88.15
2022-11-17T04:36:11.832Z,88.14
2022-11-17T04:37:11.666Z,88.17
2022-11-17T04:38:11.675Z,88.00
2022-11-17T04:39:11.682Z,88.11
2022-11-17T04:40:11.631Z,88.19
2022-11-17T04:41:11.632Z,88.37
2022-11-17T04:42:11.609Z,88.37
2022-11-17T04:43:11.610Z,88.31
2022-11-17T04:44:11.613Z,88.34
2022-11-17T04:45:11.576Z,88.38
2022-11-17T04:46:11.578Z,88.38
2022-11-17T04:47:11.543Z,88.39
2022-11-17T04:48:11.535Z,88.35
2022-11-17T04:49:11.534Z,88.28
2022-11-17T04:50:11.521Z,88.28
2022-11-17T04:51:11.513Z,88.30
2022-11-17T04:52:11.503Z,88.23
2022-11-17T04:53:11.471Z,88.02
2022-11-17T04:54:11.463Z,87.91
2022-11-17T04:55:11.473Z,87.89
2022-11-17T04:56:11.433Z,87.94
2022-11-17T04:57:11.428Z,87.81
2022-11-17T04:58:11.414Z,87.77
2022-11-17T04:59:11.421Z,87.86
2022-11-17T05:00:11.410Z,87.73
2022-11-17T05:01:11.390Z,87.66
2022-11-17T05:02:11.412Z,87.65
2022-11-17T05:03:11.357Z,87.67
2022-11-17T05:04:11.364Z,87.74
2022-11-17T05:05:11.373Z,87.65
2022-11-17T05:06:11.362Z,87.64
2022-11-17T05:07:11.345Z,87.67
2022-11-17T05:08:11.299Z,87.53
2022-11-17T05:09:11.306Z,87.57
2022-11-17T05:10:11.295Z,87.45
2022-11-17T05:11:11.311Z,87.45
2022-11-17T05:12:11.259Z,87.46
2022-11-17T05:13:11.251Z,87.55
2022-11-17T05:14:11.233Z,87.62
2022-11-17T05:15:11.253Z,87.64
2022-11-17T05:16:11.205Z,87.70
2022-11-17T05:17:11.938Z,87.75
2022-11-17T05:18:11.176Z,87.90
2022-11-17T05:19:11.188Z,88.04
2022-11-17T05:20:11.167Z,88.02
2022-11-17T05:21:11.146Z,87.96
2022-11-17T05:22:11.153Z,88.03
2022-11-17T05:23:11.132Z,88.09
2022-11-17T05:24:11.105Z,88.23
2022-11-17T05:25:11.137Z,88.24
2022-11-17T05:26:11.084Z,88.30
2022-11-17T05:27:11.077Z,88.35
2022-11-17T05:28:11.077Z,88.40
2022-11-17T05:29:11.054Z,88.43
2022-11-17T05:30:11.054Z,88.49
2022-11-17T05:31:11.028Z,88.48
2022-11-17T05:32:11.034Z,88.45
2022-11-17T05:33:11.024Z,88.44
2022-11-17T05:34:11.026Z,88.44
2022-11-17T05:35:10.996Z,88.35
2022-11-17T05:36:10.973Z,88.29
2022-11-17T05:37:10.964Z,88.21
2022-11-17T05:38:10.976Z,88.11
2022-11-17T05:39:10.946Z,88.09
2022-11-17T05:40:10.926Z,87.97
2022-11-17T05:41:10.937Z,87.87
2022-11-17T05:42:10.906Z,87.78
2022-11-17T05:43:10.902Z,87.65
2022-11-17T05:44:10.895Z,87.62
2022-11-17T05:45:10.876Z,87.61
2022-11-17T05:46:10.875Z,87.68
2022-11-17T05:47:10.838Z,87.50
2022-11-17T05:48:10.828Z,87.27
2022-11-17T05:49:10.825Z,87.17
2022-11-17T05:50:10.800Z,87.09
2022-11-17T05:51:10.808Z,86.86
2022-11-17T05:52:10.800Z,86.65
2022-11-17T05:53:10.779Z,86.48
2022-11-17T05:54:10.774Z,86.48
2022-11-17T05:55:10.752Z,86.35
2022-11-17T05:56:10.738Z,86.32
2022-11-17T05:57:10.755Z,86.20
2022-11-17T05:58:10.716Z,86.06
2022-11-17T05:59:10.696Z,86.14
2022-11-17T06:00:10.718Z,86.14
2022-11-17T06:01:10.681Z,86.15
2022-11-17T06:02:10.694Z,86.03
2022-11-17T06:03:10.649Z,86.00
2022-11-17T06:04:10.706Z,85.64
2022-11-17T06:05:13.314Z,85.62
2022-11-17T06:06:11.636Z,85.66
2022-11-17T06:07:10.670Z,85.61
2022-11-17T06:08:10.614Z,85.51
2022-11-17T06:09:10.584Z,85.41
2022-11-17T06:10:10.562Z,85.19
2022-11-17T06:11:10.565Z,85.12
2022-11-17T06:12:10.544Z,85.00
2022-11-17T06:13:10.546Z,85.08
2022-11-17T06:14:10.520Z,85.22
2022-11-17T06:15:10.525Z,85.11
2022-11-17T06:16:10.587Z,84.94
2022-11-17T06:17:10.511Z,84.97
2022-11-17T06:18:10.476Z,85.02
2022-11-17T06:19:10.478Z,85.10
2022-11-17T06:20:10.451Z,84.83
2022-11-17T06:21:10.441Z,84.62
2022-11-17T06:22:13.074Z,84.60
2022-11-17T06:23:10.437Z,84.53
2022-11-17T06:24:10.449Z,84.56
2022-11-17T06:25:10.391Z,84.89
2022-11-17T06:26:10.394Z,85.20
2022-11-17T06:27:10.397Z,85.43
2022-11-17T06:28:10.398Z,85.42
2022-11-17T06:29:10.378Z,85.40
2022-11-17T06:30:10.355Z,85.36
2022-11-17T06:31:10.318Z,85.37
2022-11-17T06:32:10.311Z,85.50
2022-11-17T06:33:10.312Z,85.54
2022-11-17T06:34:10.324Z,85.61
2022-11-17T06:35:10.312Z,85.62
2022-11-17T06:36:10.266Z,85.60
2022-11-17T06:37:10.258Z,85.50
2022-11-17T06:38:10.243Z,85.42
2022-11-17T06:39:10.232Z,85.42
2022-11-17T06:40:10.248Z,85.44
2022-11-17T06:41:12.082Z,85.30
2022-11-17T06:42:10.192Z,85.06
2022-11-17T06:43:10.197Z,85.04
2022-11-17T06:44:10.172Z,85.06
2022-11-17T06:45:10.183Z,85.03
2022-11-17T06:46:10.159Z,85.08
2022-11-17T06:47:10.141Z,85.04
2022-11-17T06:48:10.130Z,85.03
2022-11-17T06:49:10.116Z,84.75
2022-11-17T06:50:10.132Z,84.50
2022-11-17T06:51:10.114Z,84.40
2022-11-17T06:52:10.083Z,84.10
2022-11-17T06:53:10.111Z,84.01
2022-11-17T06:54:10.098Z,84.15
2022-11-17T06:55:10.074Z,84.25
2022-11-17T06:56:10.095Z,84.14
2022-11-17T06:57:10.059Z,84.13
2022-11-17T06:58:10.048Z,84.17
2022-11-17T06:59:10.037Z,84.25
2022-11-17T07:00:10.042Z,84.20
2022-11-17T07:01:10.027Z,84.07
2022-11-17T07:02:10.029Z,84.10
2022-11-17T07:03:09.973Z,84.06
2022-11-17T07:04:09.976Z,84.18
2022-11-17T07:05:09.945Z,84.38
2022-11-17T07:06:09.966Z,84.70
2022-11-17T07:07:09.977Z,84.73
2022-11-17T07:08:09.930Z,84.91
2022-11-17T07:09:09.933Z,85.11
2022-11-17T07:10:09.902Z,85.28
2022-11-17T07:11:09.874Z,85.38
2022-11-17T07:12:09.917Z,85.42
2022-11-17T07:13:09.864Z,85.51
2022-11-17T07:14:09.890Z,85.75
2022-11-17T07:15:09.828Z,85.96
2022-11-17T07:16:09.831Z,86.11
2022-11-17T07:17:09.826Z,86.41
2022-11-17T07:18:09.817Z,86.53
2022-11-17T07:19:09.822Z,86.57
2022-11-17T07:20:09.819Z,86.60
2022-11-17T07:21:09.766Z,86.44
2022-11-17T07:22:09.784Z,86.44
2022-11-17T07:23:09.748Z,86.54
2022-11-17T07:24:09.746Z,86.67
2022-11-17T07:25:09.715Z,86.86
2022-11-17T07:26:09.727Z,86.94
2022-11-17T07:27:09.708Z,87.10
2022-11-17T07:28:09.685Z,87.27
2022-11-17T07:29:09.697Z,87.40
2022-11-17T07:30:09.672Z,87.49
2022-11-17T07:31:09.656Z,87.50
2022-11-17T07:32:09.683Z,87.57
2022-11-17T07:33:09.616Z,87.71
2022-11-17T07:34:09.625Z,87.99
2022-11-17T07:35:09.612Z,88.10
2022-11-17T07:36:09.734Z,88.30
2022-11-17T07:37:09.615Z,88.43
2022-11-17T07:38:09.571Z,88.71
2022-11-17T07:39:09.548Z,88.98
2022-11-17T07:40:09.571Z,89.07
2022-11-17T07:41:09.532Z,89.19
2022-11-17T07:42:09.574Z,89.19
2022-11-17T07:43:09.516Z,89.30
2022-11-17T07:44:09.504Z,89.48
2022-11-17T07:45:09.502Z,89.56
2022-11-17T07:46:09.488Z,89.62
2022-11-17T07:47:09.457Z,89.73
2022-11-17T07:48:09.482Z,89.76
2022-11-17T07:49:09.464Z,89.78
2022-11-17T07:50:09.445Z,89.76
2022-11-17T07:51:09.444Z,89.84
2022-11-17T07:52:09.426Z,89.86
2022-11-17T07:53:09.390Z,89.86
2022-11-17T07:54:09.422Z,89.92
2022-11-17T07:55:09.377Z,89.96
2022-11-17T07:56:09.364Z,90.06
2022-11-17T07:57:09.351Z,90.10
2022-11-17T07:58:09.352Z,90.12
2022-11-17T07:59:09.350Z,90.18
2022-11-17T08:00:09.325Z,90.23
2022-11-17T08:01:09.316Z,90.21
2022-11-17T08:02:09.307Z,90.17
2022-11-17T08:03:09.284Z,90.19
2022-11-17T08:04:09.391Z,90.24
2022-11-17T08:05:09.258Z,90.27
2022-11-17T08:06:09.255Z,90.40
2022-11-17T08:07:09.234Z,90.41
2022-11-17T08:08:09.271Z,90.47
2022-11-17T08:09:09.223Z,90.53
2022-11-17T08:10:09.212Z,90.50
2022-11-17T08:11:09.183Z,90.50
2022-11-17T08:12:09.180Z,90.48
2022-11-17T08:13:09.156Z,90.40
2022-11-17T08:14:09.217Z,90.31
2022-11-17T08:15:09.144Z,90.28
2022-11-17T08:16:09.168Z,90.28
2022-11-17T08:17:09.128Z,90.26
2022-11-17T08:18:09.118Z,90.21
2022-11-17T08:19:09.100Z,90.27
2022-11-17T08:20:09.119Z,90.39
2022-11-17T08:21:09.093Z,90.47
2022-11-17T08:22:09.062Z,90.45
2022-11-17T08:23:09.030Z,90.37
2022-11-17T08:24:09.285Z,90.28
2022-11-17T08:25:09.039Z,90.26
2022-11-17T08:26:09.025Z,90.27
2022-11-17T08:27:08.990Z,90.26
2022-11-17T08:28:09.011Z,90.31
2022-11-17T08:29:08.992Z,90.41
2022-11-17T08:30:08.991Z,90.49
2022-11-17T08:31:08.963Z,90.49
2022-11-17T08:32:08.963Z,90.51
2022-11-17T08:33:08.922Z,90.55
2022-11-17T08:34:08.979Z,90.58
2022-11-17T08:35:08.902Z,90.61
2022-11-17T08:36:08.919Z,90.59
2022-11-17T08:37:08.914Z,90.61
2022-11-17T08:38:08.922Z,90.69
2022-11-17T08:39:08.868Z,90.77
2022-11-17T08:40:08.861Z,90.72
2022-11-17T08:41:08.832Z,90.65
2022-11-17T08:42:08.823Z,90.60
2022-11-17T08:43:08.823Z,90.55
2022-11-17T08:44:08.837Z,90.50
2022-11-17T08:45:08.781Z,90.49
2022-11-17T08:46:08.800Z,90.48
2022-11-17T08:47:08.777Z,90.43
2022-11-17T08:48:08.763Z,90.35
2022-11-17T08:49:08.746Z,90.40
2022-11-17T08:50:08.776Z,90.40
2022-11-17T08:51:08.748Z,90.45
2022-11-17T08:52:08.722Z,90.45
2022-11-17T08:53:08.697Z,90.27
2022-11-17T08:54:08.711Z,89.93
2022-11-17T08:55:08.687Z,89.48
2022-11-17T08:56:08.672Z,89.43
2022-11-17T08:57:08.734Z,89.35
2022-11-17T08:58:08.656Z,89.10
2022-11-17T08:59:08.669Z,88.88
2022-11-17T09:00:08.620Z,87.47
2022-11-17T09:01:08.642Z,86.96
2022-11-17T09:02:08.575Z,86.88
2022-11-17T09:03:08.572Z,86.86
2022-11-17T09:04:08.587Z,86.74
2022-11-17T09:05:08.548Z,86.31
2022-11-17T09:06:08.529Z,85.52
2022-11-17T09:07:08.541Z,84.88
2022-11-17T09:08:30.149Z,85.05
2022-11-17T09:09:09.559Z,85.47
2022-11-17T09:10:08.511Z,86.18
2022-11-17T09:11:08.461Z,86.25
2022-11-17T09:12:08.471Z,85.85
2022-11-17T09:13:08.464Z,85.66
2022-11-17T09:14:08.443Z,85.58
2022-11-17T09:15:08.431Z,85.39
2022-11-17T09:16:08.441Z,86.00
2022-11-17T09:17:08.376Z,86.30
2022-11-17T09:18:08.399Z,86.23
2022-11-17T09:19:08.369Z,86.07
2022-11-17T09:20:08.376Z,85.68
2022-11-17T09:21:08.380Z,85.60
2022-11-17T09:22:08.357Z,85.63
2022-11-17T09:23:08.339Z,85.61
2022-11-17T09:24:08.320Z,85.79
2022-11-17T09:25:13.139Z,85.83
2022-11-17T09:26:09.309Z,85.65
2022-11-17T09:27:08.275Z,83.73
2022-11-17T09:28:08.279Z,83.50
2022-11-17T09:29:08.268Z,84.13
2022-11-17T09:30:08.265Z,83.37
2022-11-17T09:31:08.299Z,83.20
2022-11-17T09:32:08.245Z,82.29
2022-11-17T09:33:08.209Z,82.98
2022-11-17T09:34:08.251Z,83.07
2022-11-17T09:35:08.193Z,83.10
2022-11-17T09:36:08.227Z,81.29
2022-11-17T09:37:08.194Z,79.43
2022-11-17T09:38:08.165Z,79.71
2022-11-17T09:39:08.142Z,79.78
2022-11-17T09:40:08.142Z,79.21
2022-11-17T09:41:08.112Z,78.63
2022-11-17T09:42:08.132Z,78.62
2022-11-17T09:43:08.118Z,79.77
2022-11-17T09:44:08.117Z,79.59
2022-11-17T09:45:08.063Z,79.45
2022-11-17T09:46:08.063Z,79.56
2022-11-17T09:47:08.055Z,78.93
2022-11-17T09:48:38.826Z,78.52
2022-11-17T09:49:09.034Z,77.18
2022-11-17T09:50:08.068Z,77.84
2022-11-17T09:51:08.033Z,78.10
2022-11-17T09:52:08.014Z,76.17
2022-11-17T09:53:08.003Z,76.24
2022-11-17T09:54:07.982Z,75.21
2022-11-17T09:55:07.981Z,75.59
2022-11-17T09:56:07.944Z,76.52
2022-11-17T09:57:07.941Z,76.71
2022-11-17T09:58:07.957Z,76.58
2022-11-17T09:59:07.906Z,76.47
2022-11-17T10:00:07.935Z,76.72
2022-11-17T10:01:07.891Z,76.60
2022-11-17T10:02:07.952Z,76.89
2022-11-17T10:03:07.867Z,76.84
2022-11-17T10:04:07.887Z,77.15
2022-11-17T10:05:07.844Z,76.34
2022-11-17T10:06:07.848Z,77.05
2022-11-17T10:07:07.840Z,77.33
2022-11-17T10:08:07.823Z,77.55
2022-11-17T10:09:07.814Z,77.17
2022-11-17T10:10:07.817Z,77.40
2022-11-17T10:11:07.763Z,77.86
2022-11-17T10:12:07.789Z,78.08
2022-11-17T10:13:07.741Z,78.60
2022-11-17T10:14:07.755Z,78.70
2022-11-17T10:15:07.751Z,78.91
2022-11-17T10:16:07.714Z,78.88
2022-11-17T10:17:07.697Z,78.83
2022-11-17T10:18:07.733Z,78.50
2022-11-17T10:19:07.678Z,78.73
2022-11-17T10:20:07.687Z,79.52
2022-11-17T10:21:07.658Z,79.88
2022-11-17T10:22:07.657Z,80.33
2022-11-17T10:23:07.639Z,80.16
2022-11-17T10:24:07.635Z,79.98
2022-11-17T10:25:07.643Z,80.12
2022-11-17T10:26:07.632Z,80.47
2022-11-17T10:27:07.586Z,80.31
2022-11-17T10:28:07.593Z,80.92
2022-11-17T10:29:09.003Z,81.09
2022-11-17T10:30:07.575Z,81.81
2022-11-17T10:31:07.529Z,81.76
2022-11-17T10:32:07.520Z,81.93
2022-11-17T10:33:07.521Z,81.52
2022-11-17T10:34:07.493Z,82.10
2022-11-17T10:35:07.498Z,82.88
2022-11-17T10:36:07.490Z,81.99
2022-11-17T10:37:07.473Z,81.28
2022-11-17T10:38:07.449Z,80.90
2022-11-17T10:39:08.613Z,81.52
2022-11-17T10:40:08.434Z,81.33
2022-11-17T10:41:07.435Z,81.22
2022-11-17T10:42:07.403Z,81.64
2022-11-17T10:43:07.411Z,81.81
2022-11-17T10:44:07.379Z,81.72
2022-11-17T10:45:07.407Z,81.83
2022-11-17T10:46:07.408Z,81.81
2022-11-17T10:47:07.358Z,82.09
2022-11-17T10:48:07.340Z,82.14
2022-11-17T10:49:07.334Z,82.37
2022-11-17T10:50:07.404Z,82.15
2022-11-17T10:51:07.410Z,81.89
2022-11-17T10:52:07.282Z,82.70
2022-11-17T10:53:12.502Z,83.35
2022-11-17T10:54:08.263Z,83.74
2022-11-17T10:55:07.261Z,83.95
2022-11-17T10:56:07.357Z,84.15
2022-11-17T10:57:07.276Z,84.04
2022-11-17T10:58:07.237Z,84.19
2022-11-17T10:59:07.221Z,84.32
2022-11-17T11:00:07.208Z,84.43
2022-11-17T11:01:07.301Z,84.23
2022-11-17T11:02:07.192Z,84.17
2022-11-17T11:03:07.176Z,84.15
2022-11-17T11:04:07.154Z,84.05
2022-11-17T11:05:07.144Z,84.18
2022-11-17T11:06:07.125Z,84.39
2022-11-17T11:07:07.203Z,84.51
2022-11-17T11:08:07.099Z,84.74
2022-11-17T11:09:07.101Z,84.86
2022-11-17T11:10:07.074Z,84.86
2022-11-17T11:11:07.091Z,84.82
2022-11-17T11:12:07.078Z,84.94
2022-11-17T11:13:07.064Z,85.13
2022-11-17T11:14:07.030Z,84.93
2022-11-17T11:15:07.040Z,84.84
2022-11-17T11:16:07.009Z,84.86
2022-11-17T11:17:07.048Z,84.88
2022-11-17T11:18:06.987Z,84.73
2022-11-17T11:19:07.111Z,84.36
2022-11-17T11:20:06.986Z,84.17
2022-11-17T11:21:06.977Z,84.16
2022-11-17T11:22:06.957Z,83.87
2022-11-17T11:23:06.970Z,83.85
2022-11-17T11:24:06.926Z,83.45
2022-11-17T11:25:06.913Z,83.22
2022-11-17T11:26:06.891Z,83.75
2022-11-17T11:27:06.919Z,83.22
2022-11-17T11:28:06.890Z,82.64
2022-11-17T11:29:06.884Z,82.22
2022-11-17T11:30:06.849Z,82.20
2022-11-17T11:31:06.866Z,82.23
2022-11-17T11:32:06.834Z,82.62
2022-11-17T11:33:06.871Z,82.69
2022-11-17T11:34:06.795Z,82.61
2022-11-17T11:35:06.808Z,82.57
2022-11-17T11:36:06.766Z,82.47
2022-11-17T11:37:06.778Z,82.26
2022-11-17T11:38:06.755Z,81.77
2022-11-17T11:39:06.775Z,81.56
2022-11-17T11:40:06.724Z,81.46
2022-11-17T11:41:06.724Z,81.80
2022-11-17T11:42:08.266Z,81.85
2022-11-17T11:43:06.717Z,81.68
2022-11-17T11:44:06.707Z,81.31
2022-11-17T11:45:06.682Z,80.36
2022-11-17T11:46:06.657Z,80.04
2022-11-17T11:47:06.690Z,79.44
2022-11-17T11:48:06.632Z,79.59
2022-11-17T11:49:06.654Z,80.01
2022-11-17T11:50:06.649Z,80.00
2022-11-17T11:51:06.621Z,79.84
2022-11-17T11:52:06.599Z,79.51
2022-11-17T11:53:06.597Z,78.99
2022-11-17T11:54:06.561Z,77.96
2022-11-17T11:55:06.566Z,77.68
2022-11-17T11:56:06.595Z,77.69
2022-11-17T11:57:06.559Z,78.59
2022-11-17T11:58:06.518Z,78.39
2022-11-17T11:59:06.537Z,78.58
2022-11-17T12:00:06.517Z,77.67
2022-11-17T12:01:06.516Z,77.42
2022-11-17T12:02:06.513Z,77.24
2022-11-17T12:03:06.547Z,76.06
2022-11-17T12:04:06.447Z,76.06
2022-11-17T12:05:06.448Z,76.30
2022-11-17T12:06:06.458Z,76.39
2022-11-17T12:07:06.467Z,76.43
2022-11-17T12:08:10.557Z,77.20
2022-11-17T12:09:06.441Z,76.27
2022-11-17T12:10:06.379Z,74.68
2022-11-17T12:11:06.385Z,75.08
2022-11-17T12:12:06.381Z,75.68
2022-11-17T12:13:06.372Z,76.03
2022-11-17T12:14:06.348Z,76.27
2022-11-17T12:15:06.330Z,76.64
2022-11-17T12:16:06.298Z,77.10
2022-11-17T12:17:06.336Z,77.59
2022-11-17T12:18:06.297Z,78.03
2022-11-17T12:19:06.306Z,78.50
2022-11-17T12:20:14.498Z,78.53
2022-11-17T12:21:07.284Z,76.38
2022-11-17T12:22:06.272Z,73.83
2022-11-17T12:23:06.250Z,74.23
2022-11-17T12:24:06.226Z,75.20
2022-11-17T12:25:06.297Z,75.09
2022-11-17T12:26:06.185Z,75.01
2022-11-17T12:27:06.200Z,74.68
2022-11-17T12:28:06.206Z,74.14
2022-11-17T12:29:06.201Z,73.42
2022-11-17T12:30:06.143Z,73.96
2022-11-17T12:31:10.087Z,73.71
2022-11-17T12:32:06.133Z,73.70
2022-11-17T12:33:06.142Z,73.96
2022-11-17T12:34:06.100Z,74.14
2022-11-17T12:35:06.127Z,73.93
2022-11-17T12:36:06.081Z,73.69
2022-11-17T12:37:06.075Z,74.12
2022-11-17T12:38:06.066Z,74.18
2022-11-17T12:39:06.049Z,74.38
2022-11-17T12:40:06.035Z,74.73
2022-11-17T12:41:06.037Z,74.55
2022-11-17T12:42:06.014Z,74.22
2022-11-17T12:43:05.993Z,73.94
2022-11-17T12:44:05.992Z,73.25
2022-11-17T12:45:05.990Z,73.06
2022-11-17T12:46:05.969Z,73.66
2022-11-17T12:47:05.956Z,73.56
2022-11-17T12:48:32.209Z,73.45
2022-11-17T12:49:06.981Z,73.74
2022-11-17T12:50:05.914Z,73.96
2022-11-17T12:51:05.934Z,73.77
2022-11-17T12:52:05.884Z,74.01